createdAt,value
2019-05-20T00:03:24.097Z,19.1
2019-05-20T00:08:21.088Z,19.1
2019-05-20T00:13:18.262Z,18.9
2019-05-20T00:18:15.001Z,19
2019-05-20T00:23:11.875Z,19
2019-05-20T00:28:08.955Z,18.9
2019-05-20T00:33:06.102Z,18.9
2019-05-20T00:38:03.287Z,18.9
2019-05-20T00:43:00.065Z,18.8
2019-05-20T00:47:56.981Z,18.9
2019-05-20T00:52:54.139Z,18.5
2019-05-20T00:57:51.055Z,18.8
2019-05-20T01:02:56.281Z,18.8
2019-05-20T01:07:44.658Z,18.7
2019-05-20T01:12:41.654Z,18.7
2019-05-20T01:17:38.591Z,18.6
2019-05-20T01:22:35.567Z,18.6
2019-05-20T01:27:32.472Z,18.4
2019-05-20T01:32:29.445Z,18.6
2019-05-20T01:37:26.492Z,18.6
2019-05-20T01:42:23.840Z,18.5
2019-05-20T01:47:20.801Z,18.9
2019-05-20T01:52:18.418Z,18.9
2019-05-20T01:57:15.391Z,18.5
2019-05-20T02:02:12.375Z,18
2019-05-20T02:07:09.321Z,18.3
2019-05-20T02:12:06.605Z,18.7
2019-05-20T02:17:03.671Z,18.3
2019-05-20T02:22:00.878Z,18.6
2019-05-20T02:26:57.779Z,18.6
2019-05-20T02:31:54.981Z,17.9
2019-05-20T02:36:51.727Z,18.4
2019-05-20T02:41:48.612Z,18.2
2019-05-20T02:46:45.685Z,18.4
2019-05-20T02:51:43.149Z,18.4
2019-05-20T02:56:40.438Z,17.9
2019-05-20T03:01:37.610Z,18.3
2019-05-20T03:06:34.697Z,18.3
2019-05-20T03:11:31.591Z,17.2
2019-05-20T03:16:28.675Z,18.2
2019-05-20T03:21:25.846Z,18.1
2019-05-20T03:26:23.301Z,18.1
2019-05-20T03:31:20.286Z,18.2
2019-05-20T03:36:17.254Z,18.2
2019-05-20T03:41:14.278Z,18.2
2019-05-20T03:46:11.781Z,13.1
2019-05-20T03:51:09.038Z,17.5
2019-05-20T03:56:06.055Z,18.1
2019-05-20T04:01:02.549Z,18.1
2019-05-20T04:05:59.467Z,18.1
2019-05-20T04:10:58.291Z,17.7
2019-05-20T04:15:58.806Z,18.1
2019-05-20T04:20:55.964Z,18
2019-05-20T04:25:53.711Z,18.1
2019-05-20T04:30:50.652Z,18.1
2019-05-20T04:35:49.727Z,18.1
2019-05-20T04:40:45.828Z,18.2
2019-05-20T04:45:45.136Z,18.2
2019-05-20T04:50:44.192Z,18.2
2019-05-20T04:55:41.927Z,18.2
2019-05-20T05:00:39.025Z,18.2
2019-05-20T05:05:37.873Z,18.3
2019-05-20T05:10:33.441Z,18.3
2019-05-20T05:15:29.792Z,18.3
2019-05-20T05:20:26.927Z,18.3
2019-05-20T05:25:24.131Z,18.2
2019-05-20T05:30:21.324Z,18.3
2019-05-20T05:35:18.946Z,18.4
2019-05-20T05:40:16.475Z,18.4
2019-05-20T05:45:13.630Z,18.5
2019-05-20T05:50:11.098Z,18.1
2019-05-20T05:55:08.039Z,18.4
2019-05-20T06:00:05.151Z,18.6
2019-05-20T06:05:02.041Z,18.2
2019-05-20T06:09:59.210Z,18.3
2019-05-20T06:14:56.337Z,18.4
2019-05-20T06:19:53.109Z,13.9
2019-05-20T06:24:50.097Z,18.4
2019-05-20T06:29:47.598Z,18.7
2019-05-20T06:34:44.111Z,18.4
2019-05-20T06:39:41.440Z,18.5
2019-05-20T06:44:51.590Z,18.9
2019-05-20T06:49:35.945Z,18.5
2019-05-20T06:54:32.957Z,18.5
2019-05-20T06:59:30.086Z,18.5
2019-05-20T07:04:27.443Z,18.5
2019-05-20T07:09:24.837Z,18.4
2019-05-20T07:14:22.172Z,19
2019-05-20T07:19:19.324Z,18.6
2019-05-20T07:24:16.851Z,18.6
2019-05-20T07:29:14.375Z,18.4
2019-05-20T07:34:11.673Z,18.6
2019-05-20T07:39:08.753Z,18.7
2019-05-20T07:44:06.021Z,18.8
2019-05-20T07:49:03.082Z,18.8
2019-05-20T07:54:00.831Z,19.3
2019-05-20T07:58:57.699Z,18.9
2019-05-20T08:03:54.745Z,19
2019-05-20T08:08:51.882Z,19.1
2019-05-20T08:13:49.092Z,19.1
2019-05-20T08:18:45.781Z,19.2
2019-05-20T08:23:43.112Z,19.7
2019-05-20T08:28:40.711Z,19.2
2019-05-20T08:33:38.448Z,19.4
2019-05-20T08:38:35.590Z,19.9
2019-05-20T08:43:32.610Z,19.5
2019-05-20T08:48:30.279Z,19.7
2019-05-20T08:53:28.084Z,19.7
2019-05-20T08:58:25.743Z,20.3
2019-05-20T09:03:23.608Z,19.8
2019-05-20T09:08:20.810Z,20.4
2019-05-20T09:13:17.922Z,20.5
2019-05-20T09:18:15.234Z,20.4
2019-05-20T09:23:12.678Z,20.5
2019-05-20T09:28:09.464Z,20.6
2019-05-20T09:33:06.867Z,20.7
2019-05-20T09:38:17.596Z,21.3
2019-05-20T09:43:01.182Z,20.9
2019-05-20T09:47:58.452Z,21
2019-05-20T09:52:56.215Z,19.2
2019-05-20T09:57:53.849Z,21.4
2019-05-20T10:02:50.592Z,21
2019-05-20T10:07:48.015Z,21
2019-05-20T10:12:46.701Z,21
2019-05-20T10:17:41.918Z,20.9
2019-05-20T10:22:38.887Z,21
2019-05-20T10:27:35.874Z,21
2019-05-20T10:32:33.083Z,21
2019-05-20T10:37:29.999Z,21
2019-05-20T10:42:27.387Z,20.8
2019-05-20T10:47:24.699Z,20.6
2019-05-20T10:52:21.436Z,20.3
2019-05-20T10:57:18.280Z,20.1
2019-05-20T11:02:15.943Z,19.5
2019-05-20T11:07:12.858Z,19.8
2019-05-20T11:12:09.514Z,19.7
2019-05-20T11:17:06.310Z,19.6
2019-05-20T11:22:03.276Z,19.5
2019-05-20T11:27:00.566Z,19.5
2019-05-20T11:31:57.128Z,19.4
2019-05-20T11:36:54.280Z,19.4
2019-05-20T11:41:54.117Z,19.5
2019-05-20T11:46:48.129Z,19.4
2019-05-20T11:51:44.959Z,19.3
2019-05-20T11:56:42.073Z,19.5
2019-05-20T12:01:39.082Z,19.6
2019-05-20T12:06:36.420Z,19.6
2019-05-20T12:11:34.037Z,19.5
2019-05-20T12:16:31.766Z,20
2019-05-20T12:21:28.722Z,19.5
2019-05-20T12:26:25.752Z,19.5
2019-05-20T12:31:22.959Z,19.5
2019-05-20T12:36:20.070Z,19.5
2019-05-20T12:41:17.498Z,19.3
2019-05-20T12:46:14.382Z,18.8
2019-05-20T12:51:14.447Z,18.2
2019-05-20T12:56:08.448Z,18.5
2019-05-20T13:01:05.362Z,18
2019-05-20T13:06:02.167Z,18.1
2019-05-20T13:10:59.196Z,18
2019-05-20T13:15:56.253Z,17.9
2019-05-20T13:20:53.751Z,18
2019-05-20T13:25:51.181Z,17.8
2019-05-20T13:30:48.239Z,18.1
2019-05-20T13:35:45.517Z,18.1
2019-05-20T13:40:46.981Z,18
2019-05-20T13:45:41.787Z,18.3
2019-05-20T13:50:39.028Z,18.4
2019-05-20T13:55:35.935Z,18.4
2019-05-20T14:00:32.621Z,18.4
2019-05-20T14:05:29.674Z,18.5
2019-05-20T14:10:27.153Z,18.5
2019-05-20T14:15:24.066Z,19.1
2019-05-20T14:20:21.588Z,18.7
2019-05-20T14:25:18.433Z,19.2
2019-05-20T14:30:15.446Z,18.8
2019-05-20T14:35:12.462Z,19.1
2019-05-20T14:40:09.605Z,18.8
2019-05-20T14:45:06.774Z,18.7
2019-05-20T14:50:03.978Z,18.5
2019-05-20T14:55:01.702Z,18.8
2019-05-20T14:59:58.688Z,18.9
2019-05-20T15:04:55.869Z,18.8
2019-05-20T15:09:52.870Z,18.8
2019-05-20T15:14:49.552Z,18.2
2019-05-20T15:19:46.115Z,18.6
2019-05-20T15:24:43.792Z,18.1
2019-05-20T15:29:40.606Z,18.5
2019-05-20T15:34:37.699Z,18.4
2019-05-20T15:39:34.744Z,18
2019-05-20T15:44:32.522Z,18.1
2019-05-20T15:49:29.854Z,18.1
2019-05-20T15:54:26.743Z,18.2
2019-05-20T15:59:23.947Z,18.1
2019-05-20T16:04:21.294Z,18.1
2019-05-20T16:09:18.149Z,18.5
2019-05-20T16:14:15.672Z,18.2
2019-05-20T16:19:12.822Z,18.3
2019-05-20T16:24:10.171Z,18
2019-05-20T16:29:06.993Z,18.4
2019-05-20T16:34:04.268Z,18.4
2019-05-20T16:39:01.549Z,14.5
2019-05-20T16:43:59.061Z,17.6
2019-05-20T16:48:56.393Z,17.8
2019-05-20T16:53:53.580Z,18.4
2019-05-20T16:58:50.787Z,18
2019-05-20T17:03:47.798Z,17.9
2019-05-20T17:08:45.031Z,17.9
2019-05-20T17:13:42.293Z,18.1
2019-05-20T17:18:40.147Z,17.7
2019-05-20T17:23:37.121Z,17.9
2019-05-20T17:28:34.212Z,18
2019-05-20T17:33:31.309Z,18.1
2019-05-20T17:38:28.546Z,17.8
2019-05-20T17:43:25.607Z,18.2
2019-05-20T17:48:22.934Z,18.1
2019-05-20T17:53:19.743Z,17.6
2019-05-20T17:58:17.309Z,18.1
2019-05-20T18:03:13.818Z,17.6
2019-05-20T18:08:11.030Z,17.7
2019-05-20T18:13:08.369Z,17.5
2019-05-20T18:18:05.897Z,18
2019-05-20T18:23:03.237Z,17.5
2019-05-20T18:28:00.144Z,17.5
2019-05-20T18:32:57.491Z,17.4
2019-05-20T18:37:54.502Z,17.5
2019-05-20T18:42:51.044Z,17.9
2019-05-20T18:47:48.632Z,17.5
2019-05-20T18:52:45.202Z,17.4
2019-05-20T18:57:42.513Z,17.4
2019-05-20T19:02:39.667Z,17.7
2019-05-20T19:07:36.823Z,17.4
2019-05-20T19:12:33.947Z,17.5
2019-05-20T19:17:31.002Z,17.3
2019-05-20T19:22:27.556Z,17.7
2019-05-20T19:27:24.572Z,16.8
2019-05-20T19:32:21.799Z,17.4
2019-05-20T19:37:18.991Z,17.4
2019-05-20T19:42:15.932Z,17.4
2019-05-20T19:47:12.212Z,17.4
2019-05-20T19:52:09.323Z,17.3
2019-05-20T19:57:06.515Z,17.1
2019-05-20T20:02:16.354Z,17
2019-05-20T20:07:00.961Z,17.1
2019-05-20T20:11:57.690Z,17
2019-05-20T20:16:55.182Z,16.3
2019-05-20T20:21:51.988Z,16.9
2019-05-20T20:26:49.403Z,16.9
2019-05-20T20:31:47.070Z,16.4
2019-05-20T20:36:44.181Z,16.9
2019-05-20T20:41:41.266Z,16.8
2019-05-20T20:46:40.475Z,16.5
2019-05-20T20:51:36.007Z,16.8
2019-05-20T20:56:34.248Z,16.8
2019-05-20T21:01:30.622Z,16.7
2019-05-20T21:06:27.748Z,16.5
2019-05-20T21:11:24.850Z,16.6
2019-05-20T21:16:21.503Z,16.5
2019-05-20T21:21:18.563Z,16.5
2019-05-20T21:26:15.698Z,16.5
2019-05-20T21:31:12.671Z,16.5
2019-05-20T21:36:09.955Z,16.5
2019-05-20T21:41:06.844Z,16.4
2019-05-20T21:46:04.171Z,16.4
2019-05-20T21:51:01.107Z,16.3
2019-05-20T21:55:57.993Z,16.3
2019-05-20T22:00:55.119Z,16.3
2019-05-20T22:05:52.633Z,16.3
2019-05-20T22:10:49.455Z,16.3
2019-05-20T22:15:46.353Z,16.3
2019-05-20T22:20:43.892Z,16.3
2019-05-20T22:25:41.224Z,16.2
2019-05-20T22:30:38.675Z,15.3
2019-05-20T22:35:35.445Z,16.1
2019-05-20T22:40:32.590Z,16.1
2019-05-20T22:45:29.662Z,16.1
2019-05-20T22:50:26.881Z,16.1
2019-05-20T22:55:24.122Z,16.1
2019-05-20T23:00:21.136Z,15.9
2019-05-20T23:05:18.689Z,15.9
2019-05-20T23:10:15.803Z,16
2019-05-20T23:15:12.799Z,16
2019-05-20T23:20:09.773Z,16
2019-05-20T23:25:06.775Z,16
2019-05-20T23:30:04.371Z,15.9
2019-05-20T23:35:02.176Z,15
2019-05-20T23:39:58.800Z,15.8
2019-05-20T23:44:56.052Z,15.8
2019-05-20T23:49:52.838Z,15.8
2019-05-20T23:54:50.418Z,15.3
2019-05-20T23:59:47.912Z,15.3
